createdAt,value
2019-05-30T00:00:56.130Z,99.60
2019-05-30T00:03:30.956Z,99.90
2019-05-30T00:06:06.769Z,99.90
2019-05-30T00:08:41.524Z,99.90
2019-05-30T00:11:16.340Z,99.90
2019-05-30T00:13:51.091Z,99.70
2019-05-30T00:16:25.741Z,99.90
2019-05-30T00:19:00.897Z,99.70
2019-05-30T00:21:35.687Z,99.60
2019-05-30T00:24:10.446Z,99.10
2019-05-30T00:26:45.166Z,99.30
2019-05-30T00:29:19.923Z,99.00
2019-05-30T00:31:55.474Z,98.90
2019-05-30T00:34:30.367Z,99.00
2019-05-30T00:37:06.050Z,99.40
2019-05-30T00:39:41.322Z,99.80
2019-05-30T00:42:16.072Z,99.90
2019-05-30T00:45:20.463Z,99.90
2019-05-30T00:47:46.922Z,99.90
2019-05-30T00:50:21.663Z,99.90
2019-05-30T00:52:56.494Z,99.90
2019-05-30T00:55:31.182Z,99.90
2019-05-30T00:58:07.333Z,99.90
2019-05-30T01:00:44.226Z,99.90
2019-05-30T01:03:18.984Z,99.90
2019-05-30T01:05:53.679Z,99.90
2019-05-30T01:08:28.480Z,99.90
2019-05-30T01:11:03.272Z,99.90
2019-05-30T01:13:37.955Z,99.90
2019-05-30T01:16:12.719Z,99.90
2019-05-30T01:18:48.127Z,99.90
2019-05-30T01:21:22.887Z,99.90
2019-05-30T01:23:59.095Z,99.90
2019-05-30T01:26:34.108Z,99.90
2019-05-30T01:29:08.906Z,99.90
2019-05-30T01:31:43.667Z,99.90
2019-05-30T01:34:18.599Z,99.90
2019-05-30T01:36:53.289Z,99.90
2019-05-30T01:39:28.086Z,99.90
2019-05-30T01:42:03.851Z,99.90
2019-05-30T01:44:38.736Z,99.90
2019-05-30T01:47:13.494Z,99.90
2019-05-30T01:49:48.215Z,99.90
2019-05-30T01:52:22.907Z,99.90
2019-05-30T01:54:58.515Z,99.90
2019-05-30T01:57:33.324Z,99.90
2019-05-30T02:00:19.849Z,99.90
2019-05-30T02:02:46.077Z,99.90
2019-05-30T02:05:20.926Z,99.90
2019-05-30T02:07:55.685Z,99.90
2019-05-30T02:10:30.505Z,99.90
2019-05-30T02:13:05.634Z,99.90
2019-05-30T02:15:40.493Z,99.90
2019-05-30T02:18:15.266Z,99.90
2019-05-30T02:20:49.966Z,99.90
2019-05-30T02:23:24.657Z,99.90
2019-05-30T02:26:00.109Z,99.90
2019-05-30T02:28:34.868Z,99.90
2019-05-30T02:31:12.545Z,99.90
2019-05-30T02:33:47.368Z,99.90
2019-05-30T02:36:22.022Z,99.90
2019-05-30T02:38:56.707Z,99.90
2019-05-30T02:41:31.710Z,99.90
2019-05-30T02:44:07.727Z,99.90
2019-05-30T02:46:42.888Z,99.90
2019-05-30T02:49:17.577Z,99.90
2019-05-30T02:51:52.251Z,99.90
2019-05-30T02:54:26.877Z,99.90
2019-05-30T02:57:03.412Z,99.90
2019-05-30T02:59:38.052Z,99.90
2019-05-30T03:02:16.716Z,99.90
2019-05-30T03:04:49.159Z,99.90
2019-05-30T03:07:23.956Z,99.90
2019-05-30T03:09:58.721Z,99.90
2019-05-30T03:12:33.507Z,99.90
2019-05-30T03:15:12.244Z,99.90
2019-05-30T03:17:45.489Z,99.90
2019-05-30T03:20:23.204Z,99.90
2019-05-30T03:22:56.733Z,99.90
2019-05-30T03:25:31.477Z,99.90
2019-05-30T03:28:07.533Z,99.90
2019-05-30T03:30:44.753Z,99.90
2019-05-30T03:33:37.325Z,99.90
2019-05-30T03:35:55.923Z,99.90
2019-05-30T03:38:30.711Z,99.90
2019-05-30T03:41:07.446Z,99.90
2019-05-30T03:43:41.880Z,99.90
2019-05-30T03:46:22.116Z,99.90
2019-05-30T03:49:00.115Z,99.90
2019-05-30T03:51:36.365Z,99.90
2019-05-30T03:54:13.732Z,99.90
2019-05-30T03:56:51.342Z,99.90
2019-05-30T03:59:40.829Z,99.90
2019-05-30T04:02:55.297Z,99.90
2019-05-30T04:05:19.202Z,99.90
2019-05-30T04:07:56.310Z,99.90
2019-05-30T04:10:34.069Z,99.90
2019-05-30T04:13:16.795Z,99.90
2019-05-30T04:15:51.088Z,99.90
2019-05-30T04:18:25.771Z,99.90
2019-05-30T04:21:00.486Z,99.90
2019-05-30T04:23:35.130Z,99.90
2019-05-30T04:26:11.427Z,99.90
2019-05-30T04:28:46.350Z,99.90
2019-05-30T04:31:21.146Z,99.90
2019-05-30T04:33:55.848Z,99.90
2019-05-30T04:36:30.550Z,99.90
2019-05-30T04:39:08.635Z,99.90
2019-05-30T04:41:43.667Z,99.90
2019-05-30T04:44:20.185Z,99.90
2019-05-30T04:46:54.801Z,99.90
2019-05-30T04:49:29.457Z,99.90
2019-05-30T04:52:04.070Z,99.90
2019-05-30T04:54:38.783Z,99.90
2019-05-30T04:57:14.948Z,99.90
2019-05-30T04:59:49.822Z,99.90
2019-05-30T05:02:24.559Z,99.90
2019-05-30T05:04:59.227Z,99.90
2019-05-30T05:07:33.902Z,99.90
2019-05-30T05:10:08.750Z,99.90
2019-05-30T05:12:43.538Z,99.90
2019-05-30T05:15:18.898Z,99.90
2019-05-30T05:17:53.629Z,99.90
2019-05-30T05:20:28.307Z,99.90
2019-05-30T05:23:03.028Z,99.90
2019-05-30T05:25:38.083Z,99.90
2019-05-30T05:28:13.633Z,99.90
2019-05-30T05:30:48.474Z,99.90
2019-05-30T05:33:23.155Z,99.90
2019-05-30T05:35:57.871Z,99.90
2019-05-30T05:38:32.618Z,99.90
2019-05-30T05:41:07.479Z,99.90
2019-05-30T05:43:42.225Z,99.90
2019-05-30T05:46:18.338Z,99.90
2019-05-30T05:48:53.294Z,99.90
2019-05-30T05:51:29.024Z,99.90
2019-05-30T05:54:04.006Z,99.90
2019-05-30T05:56:38.803Z,99.90
2019-05-30T05:59:13.458Z,99.90
2019-05-30T06:01:48.195Z,99.90
2019-05-30T06:04:23.282Z,99.90
2019-05-30T06:06:58.133Z,99.90
2019-05-30T06:09:32.968Z,99.90
2019-05-30T06:12:07.727Z,99.90
2019-05-30T06:14:42.545Z,99.90
2019-05-30T06:17:17.318Z,99.90
2019-05-30T06:19:52.109Z,99.90
2019-05-30T06:22:27.620Z,99.90
2019-05-30T06:25:04.299Z,99.90
2019-05-30T06:27:39.119Z,99.90
2019-05-30T06:30:14.211Z,99.90
2019-05-30T06:32:49.479Z,99.90
2019-05-30T06:35:24.990Z,99.90
2019-05-30T06:37:59.872Z,99.90
2019-05-30T06:40:34.839Z,99.90
2019-05-30T06:43:09.736Z,99.90
2019-05-30T06:45:44.567Z,99.90
2019-05-30T06:48:20.638Z,99.90
2019-05-30T06:50:55.507Z,99.90
2019-05-30T06:53:31.313Z,99.90
2019-05-30T06:56:06.371Z,99.90
2019-05-30T06:58:48.330Z,99.90
2019-05-30T07:01:17.531Z,99.90
2019-05-30T07:03:52.419Z,99.90
2019-05-30T07:06:28.162Z,99.90
2019-05-30T07:09:05.033Z,99.90
2019-05-30T07:11:39.766Z,99.90
2019-05-30T07:14:14.544Z,99.90
2019-05-30T07:16:49.211Z,99.90
2019-05-30T07:19:23.793Z,99.90
2019-05-30T07:21:58.586Z,99.90
2019-05-30T07:24:33.935Z,99.90
2019-05-30T07:27:08.871Z,99.90
2019-05-30T07:29:43.636Z,99.90
2019-05-30T07:32:19.095Z,99.90
2019-05-30T07:35:05.955Z,99.90
2019-05-30T07:37:30.321Z,99.90
2019-05-30T07:40:08.880Z,99.90
2019-05-30T07:42:43.598Z,99.90
2019-05-30T07:45:19.696Z,99.90
2019-05-30T07:47:54.536Z,99.90
2019-05-30T07:50:30.469Z,99.90
2019-05-30T07:53:05.959Z,99.90
2019-05-30T07:55:40.718Z,99.90
2019-05-30T07:58:15.404Z,99.90
2019-05-30T08:00:50.131Z,99.90
2019-05-30T08:03:24.939Z,99.90
2019-05-30T08:05:59.621Z,99.90
2019-05-30T08:08:34.361Z,99.90
2019-05-30T08:11:10.240Z,99.90
2019-05-30T08:13:45.349Z,99.90
2019-05-30T08:16:20.039Z,99.90
2019-05-30T08:18:54.755Z,99.90
2019-05-30T08:21:29.832Z,99.90
2019-05-30T08:24:04.851Z,99.90
2019-05-30T08:26:58.892Z,99.90
2019-05-30T08:29:34.379Z,99.90
2019-05-30T08:32:09.235Z,99.90
2019-05-30T08:34:44.022Z,99.90
2019-05-30T08:37:18.856Z,99.90
2019-05-30T08:39:53.748Z,99.90
2019-05-30T08:42:29.517Z,99.90
2019-05-30T08:45:10.457Z,99.70
2019-05-30T08:47:45.270Z,99.60
2019-05-30T08:50:20.058Z,99.30
2019-05-30T08:52:54.859Z,99.90
2019-05-30T08:55:30.226Z,99.90
2019-05-30T08:58:05.012Z,99.00
2019-05-30T09:00:39.712Z,99.40
2019-05-30T09:03:14.511Z,98.40
2019-05-30T09:06:02.731Z,99.60
2019-05-30T09:08:25.635Z,99.90
2019-05-30T09:11:00.399Z,99.40
2019-05-30T09:13:35.993Z,98.70
2019-05-30T09:16:11.556Z,99.60
2019-05-30T09:18:47.462Z,99.90
2019-05-30T09:21:22.330Z,99.50
2019-05-30T09:24:01.071Z,99.10
2019-05-30T09:26:33.504Z,99.50
2019-05-30T09:29:08.282Z,98.30
2019-05-30T09:31:44.454Z,99.10
2019-05-30T09:34:19.432Z,99.10
2019-05-30T09:36:54.205Z,98.20
2019-05-30T09:39:29.806Z,98.00
2019-05-30T09:42:04.774Z,98.40
2019-05-30T09:44:40.537Z,99.10
2019-05-30T09:47:15.810Z,98.10
2019-05-30T09:49:51.161Z,97.70
2019-05-30T09:52:26.237Z,98.40
2019-05-30T09:55:00.998Z,97.20
2019-05-30T09:57:35.820Z,97.50
2019-05-30T10:00:12.393Z,98.50
2019-05-30T10:02:48.574Z,98.00
2019-05-30T10:05:24.883Z,97.40
2019-05-30T10:07:59.767Z,97.40
2019-05-30T10:10:34.528Z,97.30
2019-05-30T10:13:09.326Z,96.60
2019-05-30T10:15:45.351Z,97.10
2019-05-30T10:18:20.397Z,96.10
2019-05-30T10:20:55.164Z,96.70
2019-05-30T10:23:29.950Z,97.10
2019-05-30T10:26:05.041Z,95.90
2019-05-30T10:28:39.762Z,96.80
2019-05-30T10:31:14.345Z,96.80
2019-05-30T10:33:49.427Z,95.60
2019-05-30T10:36:25.458Z,96.50
2019-05-30T10:39:00.083Z,96.50
2019-05-30T10:41:34.695Z,96.20
2019-05-30T10:44:09.523Z,96.60
2019-05-30T10:46:44.270Z,95.90
2019-05-30T10:49:33.631Z,96.50
2019-05-30T10:51:59.228Z,96.10
2019-05-30T10:54:33.209Z,96.60
2019-05-30T10:57:07.989Z,96.30
2019-05-30T10:59:42.779Z,96.60
2019-05-30T11:02:19.011Z,96.80
2019-05-30T11:04:54.967Z,96.50
2019-05-30T11:07:35.519Z,96.40
2019-05-30T11:10:22.250Z,96.70
2019-05-30T11:13:05.446Z,97.30
2019-05-30T11:15:33.405Z,97.10
2019-05-30T11:18:08.266Z,97.40
2019-05-30T11:20:43.055Z,98.30
2019-05-30T11:23:17.817Z,98.10
2019-05-30T11:25:52.608Z,97.90
2019-05-30T11:28:27.542Z,96.50
2019-05-30T11:31:04.520Z,96.60
2019-05-30T11:33:38.583Z,96.90
2019-05-30T11:36:13.357Z,96.10
2019-05-30T11:38:49.106Z,96.70
2019-05-30T11:41:23.904Z,95.70
2019-05-30T11:43:59.732Z,95.70
2019-05-30T11:46:35.051Z,95.90
2019-05-30T11:49:10.137Z,95.50
2019-05-30T11:51:53.663Z,95.80
2019-05-30T11:54:31.545Z,95.50
2019-05-30T11:57:07.978Z,95.80
2019-05-30T11:59:42.674Z,96.40
2019-05-30T12:02:17.437Z,94.70
2019-05-30T12:04:52.584Z,94.80
2019-05-30T12:07:36.283Z,94.00
2019-05-30T12:10:05.433Z,94.00
2019-05-30T12:12:40.239Z,95.20
2019-05-30T12:15:15.206Z,96.10
2019-05-30T12:17:51.144Z,94.80
2019-05-30T12:20:26.113Z,95.80
2019-05-30T12:23:02.124Z,95.00
2019-05-30T12:25:37.084Z,95.70
2019-05-30T12:28:11.823Z,96.60
2019-05-30T12:30:55.748Z,95.00
2019-05-30T12:33:22.973Z,94.10
2019-05-30T12:35:58.537Z,94.80
2019-05-30T12:38:33.467Z,93.50
2019-05-30T12:41:08.239Z,93.30
2019-05-30T12:43:43.089Z,93.00
2019-05-30T12:46:17.846Z,94.00
2019-05-30T12:48:53.288Z,94.90
2019-05-30T12:51:28.137Z,95.70
2019-05-30T12:54:02.938Z,95.70
2019-05-30T12:56:37.614Z,96.00
2019-05-30T12:59:12.344Z,95.30
2019-05-30T13:01:47.100Z,95.50
2019-05-30T13:04:21.892Z,95.50
2019-05-30T13:06:57.644Z,95.30
2019-05-30T13:09:32.445Z,96.60
2019-05-30T13:12:07.227Z,96.60
2019-05-30T13:14:41.976Z,96.80
2019-05-30T13:17:16.738Z,97.20
2019-05-30T13:19:51.434Z,96.90
2019-05-30T13:22:26.156Z,97.40
2019-05-30T13:25:01.882Z,96.80
2019-05-30T13:27:36.756Z,97.50
2019-05-30T13:30:13.419Z,97.50
2019-05-30T13:32:48.174Z,98.20
2019-05-30T13:35:22.886Z,98.50
2019-05-30T13:37:57.579Z,98.30
2019-05-30T13:40:32.371Z,98.70
2019-05-30T13:43:08.045Z,99.00
2019-05-30T13:45:42.894Z,99.30
2019-05-30T13:48:17.574Z,99.30
2019-05-30T13:50:52.318Z,99.40
2019-05-30T13:53:27.075Z,99.90
2019-05-30T13:56:01.858Z,99.90
2019-05-30T13:58:36.552Z,99.90
2019-05-30T14:01:13.872Z,99.90
2019-05-30T14:03:47.515Z,99.90
2019-05-30T14:06:22.249Z,99.70
2019-05-30T14:08:57.006Z,99.50
2019-05-30T14:11:31.661Z,99.90
2019-05-30T14:14:06.885Z,99.90
2019-05-30T14:16:41.815Z,99.50
2019-05-30T14:19:16.585Z,99.30
2019-05-30T14:21:51.231Z,99.40
2019-05-30T14:24:26.890Z,99.90
2019-05-30T14:27:01.681Z,99.50
2019-05-30T14:29:36.360Z,99.70
2019-05-30T14:32:12.000Z,99.90
2019-05-30T14:34:46.966Z,99.80
2019-05-30T14:37:21.687Z,99.90
2019-05-30T14:39:56.380Z,99.90
2019-05-30T14:42:31.059Z,99.60
2019-05-30T14:45:08.151Z,98.80
2019-05-30T14:47:43.223Z,99.10
2019-05-30T14:50:18.177Z,98.90
2019-05-30T14:52:52.897Z,98.20
2019-05-30T14:55:28.393Z,98.50
2019-05-30T14:58:04.934Z,98.60
2019-05-30T15:00:39.763Z,98.30
2019-05-30T15:03:15.963Z,98.00
2019-05-30T15:05:50.808Z,97.60
2019-05-30T15:08:25.612Z,97.00
2019-05-30T15:11:00.359Z,98.00
2019-05-30T15:13:35.155Z,97.90
2019-05-30T15:16:10.805Z,98.00
2019-05-30T15:18:45.540Z,97.00
2019-05-30T15:21:20.222Z,96.80
2019-05-30T15:23:54.956Z,96.40
2019-05-30T15:26:29.635Z,96.80
2019-05-30T15:29:04.427Z,96.80
2019-05-30T15:31:39.250Z,97.30
2019-05-30T15:34:14.721Z,96.30
2019-05-30T15:36:49.600Z,96.50
2019-05-30T15:39:32.346Z,96.50
2019-05-30T15:42:00.720Z,96.60
2019-05-30T15:44:35.401Z,97.10
2019-05-30T15:47:10.094Z,97.20
2019-05-30T15:49:44.747Z,97.10
2019-05-30T15:52:19.511Z,96.80
2019-05-30T15:54:54.234Z,96.60
2019-05-30T15:57:28.915Z,96.70
2019-05-30T16:00:05.985Z,96.80
2019-05-30T16:02:40.751Z,97.30
2019-05-30T16:05:18.572Z,97.40
2019-05-30T16:07:53.486Z,97.80
2019-05-30T16:10:28.146Z,98.30
2019-05-30T16:13:02.836Z,98.30
2019-05-30T16:15:37.638Z,98.90
2019-05-30T16:18:13.609Z,98.60
2019-05-30T16:20:48.590Z,98.70
2019-05-30T16:23:23.275Z,98.50
2019-05-30T16:25:57.959Z,98.90
2019-05-30T16:28:32.747Z,98.60
2019-05-30T16:31:07.491Z,98.40
2019-05-30T16:33:43.061Z,98.20
2019-05-30T16:36:18.104Z,98.20
2019-05-30T16:38:52.943Z,98.50
2019-05-30T16:41:27.758Z,98.70
2019-05-30T16:44:02.515Z,98.50
2019-05-30T16:46:37.311Z,99.00
2019-05-30T16:49:12.054Z,99.00
2019-05-30T16:51:46.784Z,98.90
2019-05-30T16:54:21.482Z,98.90
2019-05-30T16:56:56.191Z,98.90
2019-05-30T16:59:30.878Z,98.60
2019-05-30T17:02:05.662Z,98.90
2019-05-30T17:04:40.353Z,99.00
2019-05-30T17:07:15.109Z,99.10
2019-05-30T17:09:50.427Z,99.30
2019-05-30T17:12:25.800Z,99.40
2019-05-30T17:15:00.604Z,99.50
2019-05-30T17:17:35.304Z,99.40
2019-05-30T17:20:12.095Z,99.20
2019-05-30T17:22:46.815Z,99.40
2019-05-30T17:25:21.502Z,99.40
2019-05-30T17:27:57.236Z,99.30
2019-05-30T17:30:31.912Z,99.30
2019-05-30T17:33:06.629Z,99.20
2019-05-30T17:35:41.407Z,99.30
2019-05-30T17:38:18.368Z,99.30
2019-05-30T17:40:53.244Z,99.40
2019-05-30T17:43:29.182Z,99.60
2019-05-30T17:46:07.521Z,99.90
2019-05-30T17:48:40.453Z,99.70
2019-05-30T17:51:15.208Z,99.50
2019-05-30T17:53:49.926Z,99.60
2019-05-30T17:56:26.024Z,99.40
2019-05-30T17:59:00.995Z,99.70
2019-05-30T18:01:35.582Z,99.70
2019-05-30T18:04:10.268Z,99.60
2019-05-30T18:06:45.196Z,99.60
2019-05-30T18:09:20.928Z,99.40
2019-05-30T18:11:56.085Z,99.50
2019-05-30T18:14:31.433Z,99.50
2019-05-30T18:17:09.277Z,99.50
2019-05-30T18:19:42.684Z,99.90
2019-05-30T18:22:17.369Z,99.50
2019-05-30T18:24:52.166Z,99.60
2019-05-30T18:27:27.937Z,99.60
2019-05-30T18:30:02.860Z,99.50
2019-05-30T18:32:38.692Z,99.70
2019-05-30T18:35:13.785Z,99.70
2019-05-30T18:37:48.623Z,99.70
2019-05-30T18:40:34.209Z,99.70
2019-05-30T18:43:08.964Z,99.80
2019-05-30T18:45:45.086Z,99.90
2019-05-30T18:48:19.852Z,99.90
2019-05-30T18:50:54.649Z,99.80
2019-05-30T18:53:30.391Z,99.90
2019-05-30T18:56:05.228Z,99.80
2019-05-30T18:58:39.977Z,99.90
2019-05-30T19:01:14.660Z,99.90
2019-05-30T19:03:50.387Z,99.70
2019-05-30T19:06:25.652Z,99.50
2019-05-30T19:09:00.396Z,99.70
2019-05-30T19:11:36.643Z,99.50
2019-05-30T19:14:11.503Z,99.50
2019-05-30T19:16:46.271Z,99.40
2019-05-30T19:19:21.062Z,99.10
2019-05-30T19:21:56.141Z,99.20
2019-05-30T19:24:31.937Z,99.10
2019-05-30T19:27:06.931Z,99.20
2019-05-30T19:29:41.646Z,99.30
2019-05-30T19:32:16.255Z,99.10
2019-05-30T19:34:51.011Z,99.20
2019-05-30T19:37:26.955Z,99.00
2019-05-30T19:40:01.847Z,99.00
2019-05-30T19:42:37.719Z,99.30
2019-05-30T19:45:14.687Z,99.40
2019-05-30T19:47:49.510Z,99.40
2019-05-30T19:50:24.571Z,99.40
2019-05-30T19:52:59.335Z,99.50
2019-05-30T19:55:35.211Z,99.30
2019-05-30T19:58:10.110Z,99.50
2019-05-30T20:00:58.145Z,99.40
2019-05-30T20:03:35.664Z,99.30
2019-05-30T20:05:57.544Z,99.30
2019-05-30T20:08:47.899Z,99.40
2019-05-30T20:11:08.530Z,99.60
2019-05-30T20:13:43.337Z,99.40
2019-05-30T20:16:17.960Z,99.50
2019-05-30T20:18:52.639Z,99.30
2019-05-30T20:21:27.306Z,99.30
2019-05-30T20:24:02.028Z,99.30
2019-05-30T20:26:36.737Z,99.10
2019-05-30T20:29:11.378Z,99.10
2019-05-30T20:31:46.067Z,99.20
2019-05-30T20:34:20.786Z,99.20
2019-05-30T20:36:55.543Z,99.00
2019-05-30T20:39:30.416Z,99.00
2019-05-30T20:42:18.200Z,99.10
2019-05-30T20:44:42.916Z,98.90
2019-05-30T20:47:17.626Z,98.80
2019-05-30T20:49:52.361Z,98.70
2019-05-30T20:52:27.046Z,98.80
2019-05-30T20:55:01.769Z,98.70
2019-05-30T20:57:36.525Z,98.80
2019-05-30T21:00:13.324Z,98.70
2019-05-30T21:02:48.173Z,99.00
2019-05-30T21:05:22.963Z,98.90
2019-05-30T21:07:57.921Z,98.70
2019-05-30T21:10:33.308Z,98.60
2019-05-30T21:13:08.062Z,98.60
2019-05-30T21:15:45.771Z,98.80
2019-05-30T21:18:20.549Z,98.60
2019-05-30T21:20:55.245Z,98.70
2019-05-30T21:23:29.940Z,98.70
2019-05-30T21:26:04.725Z,98.50
2019-05-30T21:28:39.477Z,98.50
2019-05-30T21:31:14.193Z,98.60
2019-05-30T21:33:49.520Z,98.60
2019-05-30T21:36:26.642Z,98.40
2019-05-30T21:39:00.602Z,98.80
2019-05-30T21:41:35.321Z,98.60
2019-05-30T21:44:10.007Z,98.60
2019-05-30T21:46:44.866Z,98.80
2019-05-30T21:49:19.620Z,98.70
2019-05-30T21:51:54.351Z,98.60
2019-05-30T21:54:29.101Z,98.40
2019-05-30T21:57:03.994Z,98.50
2019-05-30T21:59:40.126Z,98.40
2019-05-30T22:02:15.056Z,98.70
2019-05-30T22:04:50.797Z,98.60
2019-05-30T22:07:25.733Z,98.30
2019-05-30T22:10:00.488Z,98.50
2019-05-30T22:12:35.847Z,98.50
2019-05-30T22:15:10.706Z,98.30
2019-05-30T22:17:45.720Z,98.50
2019-05-30T22:20:20.615Z,98.40
2019-05-30T22:22:55.411Z,98.70
2019-05-30T22:25:30.158Z,98.70
2019-05-30T22:28:04.988Z,98.70
2019-05-30T22:30:39.679Z,98.60
2019-05-30T22:33:14.402Z,98.40
2019-05-30T22:35:49.166Z,98.60
2019-05-30T22:38:23.815Z,98.80
2019-05-30T22:40:58.507Z,98.80
2019-05-30T22:43:33.237Z,98.80
2019-05-30T22:46:08.002Z,99.10
2019-05-30T22:48:42.649Z,99.00
2019-05-30T22:51:17.410Z,99.00
2019-05-30T22:53:53.255Z,99.00
2019-05-30T22:56:28.103Z,99.20
2019-05-30T22:59:02.863Z,99.50
2019-05-30T23:01:37.524Z,99.50
2019-05-30T23:04:12.906Z,99.30
2019-05-30T23:06:48.280Z,99.30
2019-05-30T23:09:23.158Z,99.20
2019-05-30T23:11:57.849Z,99.00
2019-05-30T23:14:32.573Z,99.00
2019-05-30T23:17:07.261Z,99.20
2019-05-30T23:19:42.119Z,99.20
2019-05-30T23:22:16.813Z,99.20
2019-05-30T23:24:52.287Z,99.50
2019-05-30T23:27:27.740Z,99.20
2019-05-30T23:30:02.432Z,99.30
2019-05-30T23:32:37.191Z,99.10
2019-05-30T23:35:12.105Z,99.30
2019-05-30T23:37:46.794Z,99.50
2019-05-30T23:40:21.590Z,99.50
2019-05-30T23:42:57.207Z,99.30
2019-05-30T23:45:32.139Z,99.30
2019-05-30T23:48:06.825Z,99.20
2019-05-30T23:50:41.619Z,99.30
2019-05-30T23:53:16.366Z,99.40
2019-05-30T23:55:52.226Z,99.40
2019-05-30T23:58:27.066Z,99.40
